sensor_id;sensor_type;location;lat;lon;timestamp;pressure;altitude;pressure_sealevel;temperature;humidity
81387;BME280;70842;50.744;7.114;2023-08-12T00:01:50;101309.38;;;24.45;69.91
81387;BME280;70842;50.744;7.114;2023-08-12T00:04:17;101313.44;;;24.28;71.10
81387;BME280;70842;50.744;7.114;2023-08-12T00:06:43;101313.88;;;24.32;71.07
81387;BME280;70842;50.744;7.114;2023-08-12T00:09:10;101314.56;;;24.13;71.59
81387;BME280;70842;50.744;7.114;2023-08-12T00:11:41;101302.16;;;24.25;71.33
81387;BME280;70842;50.744;7.114;2023-08-12T00:14:07;101308.16;;;23.99;72.37
81387;BME280;70842;50.744;7.114;2023-08-12T00:16:34;101321.00;;;23.90;72.75
81387;BME280;70842;50.744;7.114;2023-08-12T00:19:00;101328.25;;;23.83;73.61
81387;BME280;70842;50.744;7.114;2023-08-12T00:21:27;101335.31;;;23.27;75.51
81387;BME280;70842;50.744;7.114;2023-08-12T00:23:54;101353.16;;;23.22;76.04
81387;BME280;70842;50.744;7.114;2023-08-12T00:26:20;101346.47;;;22.74;77.42
81387;BME280;70842;50.744;7.114;2023-08-12T00:28:48;101340.72;;;22.63;78.57
81387;BME280;70842;50.744;7.114;2023-08-12T00:31:16;101333.97;;;23.53;74.93
81387;BME280;70842;50.744;7.114;2023-08-12T00:33:42;101323.91;;;23.89;73.83
81387;BME280;70842;50.744;7.114;2023-08-12T00:36:08;101320.50;;;23.80;74.12
81387;BME280;70842;50.744;7.114;2023-08-12T00:38:35;101311.00;;;23.91;73.75
81387;BME280;70842;50.744;7.114;2023-08-12T00:41:03;101308.44;;;23.83;74.43
81387;BME280;70842;50.744;7.114;2023-08-12T00:43:29;101289.53;;;23.62;75.80
81387;BME280;70842;50.744;7.114;2023-08-12T00:45:56;101289.38;;;23.70;75.07
81387;BME280;70842;50.744;7.114;2023-08-12T00:48:22;101283.25;;;23.61;74.26
81387;BME280;70842;50.744;7.114;2023-08-12T00:50:49;101285.00;;;23.48;75.28
81387;BME280;70842;50.744;7.114;2023-08-12T00:53:16;101278.63;;;23.55;74.67
81387;BME280;70842;50.744;7.114;2023-08-12T00:55:43;101276.72;;;23.49;74.69
81387;BME280;70842;50.744;7.114;2023-08-12T00:58:10;101285.91;;;23.76;73.63
81387;BME280;70842;50.744;7.114;2023-08-12T01:00:36;101285.41;;;23.66;73.77
81387;BME280;70842;50.744;7.114;2023-08-12T01:03:03;101287.13;;;23.73;73.85
81387;BME280;70842;50.744;7.114;2023-08-12T01:05:30;101288.88;;;23.81;73.27
81387;BME280;70842;50.744;7.114;2023-08-12T01:07:57;101284.16;;;23.68;73.69
81387;BME280;70842;50.744;7.114;2023-08-12T01:10:30;101281.97;;;23.78;73.71
81387;BME280;70842;50.744;7.114;2023-08-12T01:13:01;101277.19;;;23.80;73.81
81387;BME280;70842;50.744;7.114;2023-08-12T01:15:31;101270.13;;;23.79;74.18
81387;BME280;70842;50.744;7.114;2023-08-12T01:18:00;101278.00;;;23.53;74.99
81387;BME280;70842;50.744;7.114;2023-08-12T01:20:27;101272.38;;;23.55;75.06
81387;BME280;70842;50.744;7.114;2023-08-12T01:23:11;101272.13;;;23.71;74.57
81387;BME280;70842;50.744;7.114;2023-08-12T01:25:40;101270.22;;;23.71;74.78
81387;BME280;70842;50.744;7.114;2023-08-12T01:28:06;101262.22;;;23.84;73.99
81387;BME280;70842;50.744;7.114;2023-08-12T01:30:36;101271.41;;;23.83;74.37
81387;BME280;70842;50.744;7.114;2023-08-12T01:33:17;101262.72;;;23.94;73.90
81387;BME280;70842;50.744;7.114;2023-08-12T01:36:00;101262.38;;;23.76;74.42
81387;BME280;70842;50.744;7.114;2023-08-12T01:38:31;101252.63;;;23.82;74.09
81387;BME280;70842;50.744;7.114;2023-08-12T01:40:58;101256.19;;;23.61;74.32
81387;BME280;70842;50.744;7.114;2023-08-12T01:43:26;101251.84;;;23.60;74.77
81387;BME280;70842;50.744;7.114;2023-08-12T01:45:53;101252.97;;;23.72;74.18
81387;BME280;70842;50.744;7.114;2023-08-12T01:48:19;101243.53;;;23.89;73.73
81387;BME280;70842;50.744;7.114;2023-08-12T01:50:49;101243.53;;;23.89;73.22
81387;BME280;70842;50.744;7.114;2023-08-12T01:53:15;101244.13;;;23.85;73.22
81387;BME280;70842;50.744;7.114;2023-08-12T01:55:43;101236.44;;;23.88;73.15
81387;BME280;70842;50.744;7.114;2023-08-12T01:58:10;101244.06;;;23.78;73.31
81387;BME280;70842;50.744;7.114;2023-08-12T02:00:36;101230.69;;;23.70;73.82
81387;BME280;70842;50.744;7.114;2023-08-12T02:03:03;101223.25;;;23.79;73.18
81387;BME280;70842;50.744;7.114;2023-08-12T02:05:29;101216.94;;;23.72;73.15
81387;BME280;70842;50.744;7.114;2023-08-12T02:07:56;101224.28;;;23.78;72.77
81387;BME280;70842;50.744;7.114;2023-08-12T02:10:22;101216.25;;;23.63;73.31
81387;BME280;70842;50.744;7.114;2023-08-12T02:12:49;101217.41;;;23.54;73.10
81387;BME280;70842;50.744;7.114;2023-08-12T02:15:15;101214.19;;;23.65;72.97
81387;BME280;70842;50.744;7.114;2023-08-12T02:17:42;101219.19;;;23.41;74.02
81387;BME280;70842;50.744;7.114;2023-08-12T02:20:09;101213.41;;;23.29;74.13
81387;BME280;70842;50.744;7.114;2023-08-12T02:22:35;101216.69;;;23.24;74.12
81387;BME280;70842;50.744;7.114;2023-08-12T02:25:02;101213.91;;;23.18;74.49
81387;BME280;70842;50.744;7.114;2023-08-12T02:27:28;101218.59;;;23.24;73.91
81387;BME280;70842;50.744;7.114;2023-08-12T02:29:55;101217.19;;;23.49;73.33
81387;BME280;70842;50.744;7.114;2023-08-12T02:32:21;101220.13;;;23.54;72.91
81387;BME280;70842;50.744;7.114;2023-08-12T02:34:48;101224.13;;;23.58;73.06
81387;BME280;70842;50.744;7.114;2023-08-12T02:37:14;101220.78;;;23.56;72.70
81387;BME280;70842;50.744;7.114;2023-08-12T02:39:40;101226.47;;;23.40;73.78
81387;BME280;70842;50.744;7.114;2023-08-12T02:42:07;101224.81;;;23.39;73.76
81387;BME280;70842;50.744;7.114;2023-08-12T02:44:33;101216.41;;;23.34;74.04
81387;BME280;70842;50.744;7.114;2023-08-12T02:47:00;101212.56;;;23.43;73.53
81387;BME280;70842;50.744;7.114;2023-08-12T02:49:26;101215.00;;;23.38;73.12
81387;BME280;70842;50.744;7.114;2023-08-12T02:51:54;101201.59;;;23.30;73.24
81387;BME280;70842;50.744;7.114;2023-08-12T02:54:20;101209.50;;;23.53;72.25
81387;BME280;70842;50.744;7.114;2023-08-12T02:56:46;101204.09;;;23.32;73.29
81387;BME280;70842;50.744;7.114;2023-08-12T02:59:13;101213.25;;;22.95;74.19
81387;BME280;70842;50.744;7.114;2023-08-12T03:01:42;101209.63;;;23.23;73.28
81387;BME280;70842;50.744;7.114;2023-08-12T03:04:08;101205.88;;;22.68;75.06
81387;BME280;70842;50.744;7.114;2023-08-12T03:06:35;101205.75;;;22.90;74.22
81387;BME280;70842;50.744;7.114;2023-08-12T03:09:01;101205.56;;;23.13;73.47
81387;BME280;70842;50.744;7.114;2023-08-12T03:11:28;101204.13;;;22.96;74.08
81387;BME280;70842;50.744;7.114;2023-08-12T03:13:54;101199.75;;;22.95;74.07
81387;BME280;70842;50.744;7.114;2023-08-12T03:16:21;101196.94;;;23.03;73.74
81387;BME280;70842;50.744;7.114;2023-08-12T03:18:48;101195.69;;;23.05;73.77
81387;BME280;70842;50.744;7.114;2023-08-12T03:21:14;101190.38;;;23.12;73.26
81387;BME280;70842;50.744;7.114;2023-08-12T03:23:40;101192.41;;;23.10;73.75
81387;BME280;70842;50.744;7.114;2023-08-12T03:26:07;101184.56;;;22.94;73.76
81387;BME280;70842;50.744;7.114;2023-08-12T03:28:33;101178.34;;;23.14;73.39
81387;BME280;70842;50.744;7.114;2023-08-12T03:31:00;101168.59;;;22.99;73.87
81387;BME280;70842;50.744;7.114;2023-08-12T03:33:26;101169.28;;;23.01;73.82
81387;BME280;70842;50.744;7.114;2023-08-12T03:35:52;101167.59;;;23.00;74.14
81387;BME280;70842;50.744;7.114;2023-08-12T03:38:19;101162.44;;;22.84;73.78
81387;BME280;70842;50.744;7.114;2023-08-12T03:40:45;101166.22;;;22.53;74.79
81387;BME280;70842;50.744;7.114;2023-08-12T03:43:12;101169.91;;;23.03;73.53
81387;BME280;70842;50.744;7.114;2023-08-12T03:45:42;101167.13;;;22.96;73.44
81387;BME280;70842;50.744;7.114;2023-08-12T03:48:11;101164.22;;;22.77;74.13
81387;BME280;70842;50.744;7.114;2023-08-12T03:50:38;101157.84;;;23.05;72.93
81387;BME280;70842;50.744;7.114;2023-08-12T03:53:05;101152.38;;;22.99;72.92
81387;BME280;70842;50.744;7.114;2023-08-12T03:55:33;101144.94;;;23.01;72.43
81387;BME280;70842;50.744;7.114;2023-08-12T03:58:00;101146.34;;;22.97;72.24
81387;BME280;70842;50.744;7.114;2023-08-12T04:00:26;101139.53;;;23.01;72.23
81387;BME280;70842;50.744;7.114;2023-08-12T04:02:53;101132.31;;;22.87;72.48
81387;BME280;70842;50.744;7.114;2023-08-12T04:05:19;101127.94;;;23.07;71.93
81387;BME280;70842;50.744;7.114;2023-08-12T04:07:46;101119.91;;;23.13;71.53
81387;BME280;70842;50.744;7.114;2023-08-12T04:10:12;101130.66;;;23.07;71.73
81387;BME280;70842;50.744;7.114;2023-08-12T04:12:40;101106.13;;;23.08;71.49
81387;BME280;70842;50.744;7.114;2023-08-12T04:15:08;101109.66;;;23.09;71.64
81387;BME280;70842;50.744;7.114;2023-08-12T04:17:34;101109.59;;;23.02;72.12
81387;BME280;70842;50.744;7.114;2023-08-12T04:20:02;101106.56;;;22.91;72.01
81387;BME280;70842;50.744;7.114;2023-08-12T04:22:32;101109.69;;;22.88;72.37
81387;BME280;70842;50.744;7.114;2023-08-12T04:24:58;101103.69;;;22.92;72.24
81387;BME280;70842;50.744;7.114;2023-08-12T04:27:24;101106.69;;;22.83;72.53
81387;BME280;70842;50.744;7.114;2023-08-12T04:29:51;101111.84;;;22.78;72.68
81387;BME280;70842;50.744;7.114;2023-08-12T04:32:17;101105.28;;;22.66;73.42
81387;BME280;70842;50.744;7.114;2023-08-12T04:34:45;101098.78;;;22.60;73.58
81387;BME280;70842;50.744;7.114;2023-08-12T04:37:12;101110.00;;;22.28;74.70
81387;BME280;70842;50.744;7.114;2023-08-12T04:39:38;101111.66;;;21.41;78.45
81387;BME280;70842;50.744;7.114;2023-08-12T04:42:06;101114.34;;;21.27;79.35
81387;BME280;70842;50.744;7.114;2023-08-12T04:44:32;101110.09;;;21.47;78.72
81387;BME280;70842;50.744;7.114;2023-08-12T04:46:58;101103.81;;;21.98;76.22
81387;BME280;70842;50.744;7.114;2023-08-12T04:49:25;101109.66;;;22.31;75.09
81387;BME280;70842;50.744;7.114;2023-08-12T04:51:52;101105.09;;;22.52;74.12
81387;BME280;70842;50.744;7.114;2023-08-12T04:54:19;101097.63;;;22.54;73.72
81387;BME280;70842;50.744;7.114;2023-08-12T04:56:45;101088.16;;;22.59;74.01
81387;BME280;70842;50.744;7.114;2023-08-12T04:59:11;101092.06;;;22.56;74.22
81387;BME280;70842;50.744;7.114;2023-08-12T05:01:38;101085.28;;;22.60;74.38
81387;BME280;70842;50.744;7.114;2023-08-12T05:04:19;101088.28;;;22.72;73.52
81387;BME280;70842;50.744;7.114;2023-08-12T05:06:46;101084.44;;;22.81;73.36
81387;BME280;70842;50.744;7.114;2023-08-12T05:09:13;101080.09;;;22.80;73.24
81387;BME280;70842;50.744;7.114;2023-08-12T05:11:40;101082.50;;;22.96;72.66
81387;BME280;70842;50.744;7.114;2023-08-12T05:14:06;101093.63;;;23.07;72.29
81387;BME280;70842;50.744;7.114;2023-08-12T05:16:33;101079.72;;;23.10;72.60
81387;BME280;70842;50.744;7.114;2023-08-12T05:18:59;101097.81;;;23.10;72.87
81387;BME280;70842;50.744;7.114;2023-08-12T05:21:25;101095.50;;;22.65;74.75
81387;BME280;70842;50.744;7.114;2023-08-12T05:23:52;101103.56;;;22.79;74.45
81387;BME280;70842;50.744;7.114;2023-08-12T05:26:19;101106.25;;;23.00;73.86
81387;BME280;70842;50.744;7.114;2023-08-12T05:28:47;101101.78;;;23.14;73.64
81387;BME280;70842;50.744;7.114;2023-08-12T05:31:13;101098.16;;;22.43;76.63
81387;BME280;70842;50.744;7.114;2023-08-12T05:33:39;101106.94;;;22.16;77.96
81387;BME280;70842;50.744;7.114;2023-08-12T05:36:06;101115.03;;;22.31;77.75
81387;BME280;70842;50.744;7.114;2023-08-12T05:38:32;101117.47;;;22.26;78.35
81387;BME280;70842;50.744;7.114;2023-08-12T05:40:59;101114.31;;;21.93;79.54
81387;BME280;70842;50.744;7.114;2023-08-12T05:43:25;101122.16;;;21.88;80.13
81387;BME280;70842;50.744;7.114;2023-08-12T05:45:51;101120.22;;;21.82;79.83
81387;BME280;70842;50.744;7.114;2023-08-12T05:48:18;101119.91;;;22.06;79.79
81387;BME280;70842;50.744;7.114;2023-08-12T05:50:44;101122.91;;;21.97;80.25
81387;BME280;70842;50.744;7.114;2023-08-12T05:53:11;101125.94;;;22.08;80.05
81387;BME280;70842;50.744;7.114;2023-08-12T05:55:38;101122.41;;;22.08;79.95
81387;BME280;70842;50.744;7.114;2023-08-12T05:58:04;101138.91;;;21.98;80.09
81387;BME280;70842;50.744;7.114;2023-08-12T06:00:31;101154.25;;;21.83;79.47
81387;BME280;70842;50.744;7.114;2023-08-12T06:02:57;101162.41;;;21.75;80.58
81387;BME280;70842;50.744;7.114;2023-08-12T06:05:24;101175.88;;;21.60;81.78
81387;BME280;70842;50.744;7.114;2023-08-12T06:07:50;101200.75;;;21.48;82.02
81387;BME280;70842;50.744;7.114;2023-08-12T06:10:17;101187.78;;;21.29;82.88
81387;BME280;70842;50.744;7.114;2023-08-12T06:12:43;101180.06;;;20.95;81.12
81387;BME280;70842;50.744;7.114;2023-08-12T06:15:10;101159.91;;;21.36;80.96
81387;BME280;70842;50.744;7.114;2023-08-12T06:17:36;101128.16;;;21.24;78.93
81387;BME280;70842;50.744;7.114;2023-08-12T06:20:03;101104.75;;;21.02;79.19
81387;BME280;70842;50.744;7.114;2023-08-12T06:22:29;101109.53;;;21.66;77.94
81387;BME280;70842;50.744;7.114;2023-08-12T06:24:56;101111.88;;;21.69;77.05
81387;BME280;70842;50.744;7.114;2023-08-12T06:27:22;101119.19;;;21.09;79.33
81387;BME280;70842;50.744;7.114;2023-08-12T06:29:48;101129.81;;;21.62;77.55
81387;BME280;70842;50.744;7.114;2023-08-12T06:32:15;101129.50;;;21.94;77.45
81387;BME280;70842;50.744;7.114;2023-08-12T06:34:41;101115.13;;;21.79;77.53
81387;BME280;70842;50.744;7.114;2023-08-12T06:37:08;101115.47;;;21.47;78.61
81387;BME280;70842;50.744;7.114;2023-08-12T06:39:34;101097.63;;;21.46;78.43
81387;BME280;70842;50.744;7.114;2023-08-12T06:42:00;101099.16;;;21.63;78.49
81387;BME280;70842;50.744;7.114;2023-08-12T06:44:27;101096.13;;;21.29;79.66
81387;BME280;70842;50.744;7.114;2023-08-12T06:46:53;101085.69;;;21.26;79.28
81387;BME280;70842;50.744;7.114;2023-08-12T06:49:19;101081.03;;;21.20;79.71
81387;BME280;70842;50.744;7.114;2023-08-12T06:51:46;101076.22;;;21.59;78.12
81387;BME280;70842;50.744;7.114;2023-08-12T06:54:12;101078.41;;;21.12;79.55
81387;BME280;70842;50.744;7.114;2023-08-12T06:56:39;101078.63;;;21.02;79.14
81387;BME280;70842;50.744;7.114;2023-08-12T06:59:05;101082.78;;;21.13;79.79
81387;BME280;70842;50.744;7.114;2023-08-12T07:01:32;101082.63;;;21.29;78.83
81387;BME280;70842;50.744;7.114;2023-08-12T07:03:58;101084.81;;;21.11;79.56
81387;BME280;70842;50.744;7.114;2023-08-12T07:06:25;101083.03;;;21.03;79.95
81387;BME280;70842;50.744;7.114;2023-08-12T07:08:51;101080.19;;;21.19;78.75
81387;BME280;70842;50.744;7.114;2023-08-12T07:11:18;101084.16;;;21.09;79.80
81387;BME280;70842;50.744;7.114;2023-08-12T07:13:44;101074.75;;;21.42;78.05
81387;BME280;70842;50.744;7.114;2023-08-12T07:16:12;101066.78;;;21.11;78.51
81387;BME280;70842;50.744;7.114;2023-08-12T07:18:39;101069.16;;;21.29;79.35
81387;BME280;70842;50.744;7.114;2023-08-12T07:21:05;101070.22;;;21.05;80.04
81387;BME280;70842;50.744;7.114;2023-08-12T07:23:32;101067.22;;;21.52;78.69
81387;BME280;70842;50.744;7.114;2023-08-12T07:25:58;101068.03;;;21.38;78.48
81387;BME280;70842;50.744;7.114;2023-08-12T07:28:24;101073.72;;;21.28;78.59
81387;BME280;70842;50.744;7.114;2023-08-12T07:30:51;101073.84;;;20.89;79.87
81387;BME280;70842;50.744;7.114;2023-08-12T07:33:19;101076.72;;;21.11;79.29
81387;BME280;70842;50.744;7.114;2023-08-12T07:35:47;101071.47;;;21.32;78.02
81387;BME280;70842;50.744;7.114;2023-08-12T07:38:13;101074.69;;;21.64;77.12
81387;BME280;70842;50.744;7.114;2023-08-12T07:40:40;101084.59;;;21.35;77.92
81387;BME280;70842;50.744;7.114;2023-08-12T07:43:07;101092.91;;;21.77;77.35
81387;BME280;70842;50.744;7.114;2023-08-12T07:45:34;101093.63;;;21.42;78.61
81387;BME280;70842;50.744;7.114;2023-08-12T07:48:00;101080.94;;;21.94;76.71
81387;BME280;70842;50.744;7.114;2023-08-12T07:50:26;101085.38;;;21.87;77.58
81387;BME280;70842;50.744;7.114;2023-08-12T07:52:53;101094.31;;;22.02;77.31
81387;BME280;70842;50.744;7.114;2023-08-12T07:55:21;101083.31;;;22.04;77.62
81387;BME280;70842;50.744;7.114;2023-08-12T07:57:51;101079.66;;;22.26;76.00
81387;BME280;70842;50.744;7.114;2023-08-12T08:00:18;101078.41;;;22.07;76.47
81387;BME280;70842;50.744;7.114;2023-08-12T08:02:45;101085.00;;;22.05;77.10
81387;BME280;70842;50.744;7.114;2023-08-12T08:05:11;101080.59;;;22.33;76.68
81387;BME280;70842;50.744;7.114;2023-08-12T08:07:38;101070.88;;;22.38;75.43
81387;BME280;70842;50.744;7.114;2023-08-12T08:10:05;101080.06;;;22.08;77.38
81387;BME280;70842;50.744;7.114;2023-08-12T08:12:31;101080.03;;;22.23;76.91
81387;BME280;70842;50.744;7.114;2023-08-12T08:14:58;101069.09;;;21.95;76.22
81387;BME280;70842;50.744;7.114;2023-08-12T08:17:24;101071.53;;;21.90;75.78
81387;BME280;70842;50.744;7.114;2023-08-12T08:19:51;101075.19;;;22.18;76.67
81387;BME280;70842;50.744;7.114;2023-08-12T08:22:17;101072.50;;;22.33;75.83
81387;BME280;70842;50.744;7.114;2023-08-12T08:24:44;101074.56;;;22.16;75.73
81387;BME280;70842;50.744;7.114;2023-08-12T08:27:10;101081.59;;;22.68;74.09
81387;BME280;70842;50.744;7.114;2023-08-12T08:29:37;101076.03;;;22.54;74.15
81387;BME280;70842;50.744;7.114;2023-08-12T08:32:03;101074.28;;;22.62;73.91
81387;BME280;70842;50.744;7.114;2023-08-12T08:34:30;101060.31;;;22.22;73.94
81387;BME280;70842;50.744;7.114;2023-08-12T08:36:56;101062.44;;;22.84;73.67
81387;BME280;70842;50.744;7.114;2023-08-12T08:39:22;101073.25;;;22.48;75.36
81387;BME280;70842;50.744;7.114;2023-08-12T08:41:49;101075.63;;;22.36;74.43
81387;BME280;70842;50.744;7.114;2023-08-12T08:44:17;101077.00;;;22.47;73.30
81387;BME280;70842;50.744;7.114;2023-08-12T08:46:47;101080.03;;;22.59;73.64
81387;BME280;70842;50.744;7.114;2023-08-12T08:49:14;101075.22;;;22.54;73.28
81387;BME280;70842;50.744;7.114;2023-08-12T08:51:41;101079.72;;;23.10;71.86
81387;BME280;70842;50.744;7.114;2023-08-12T08:54:15;101081.72;;;23.02;72.36
81387;BME280;70842;50.744;7.114;2023-08-12T08:56:41;101087.25;;;23.15;72.64
81387;BME280;70842;50.744;7.114;2023-08-12T08:59:16;101084.44;;;22.81;72.68
81387;BME280;70842;50.744;7.114;2023-08-12T09:01:43;101088.41;;;23.06;72.87
81387;BME280;70842;50.744;7.114;2023-08-12T09:04:14;101098.22;;;22.86;73.78
81387;BME280;70842;50.744;7.114;2023-08-12T09:06:42;101106.84;;;22.96;71.49
81387;BME280;70842;50.744;7.114;2023-08-12T09:09:11;101109.09;;;22.92;72.11
81387;BME280;70842;50.744;7.114;2023-08-12T09:11:39;101117.00;;;23.15;71.68
81387;BME280;70842;50.744;7.114;2023-08-12T09:14:06;101102.91;;;22.98;71.22
81387;BME280;70842;50.744;7.114;2023-08-12T09:16:33;101099.97;;;23.42;69.73
81387;BME280;70842;50.744;7.114;2023-08-12T09:19:00;101106.59;;;23.67;69.32
81387;BME280;70842;50.744;7.114;2023-08-12T09:21:26;101109.50;;;23.38;69.99
81387;BME280;70842;50.744;7.114;2023-08-12T09:23:53;101101.78;;;23.63;69.50
81387;BME280;70842;50.744;7.114;2023-08-12T09:26:20;101114.50;;;23.35;69.84
81387;BME280;70842;50.744;7.114;2023-08-12T09:28:47;101116.16;;;23.14;71.32
81387;BME280;70842;50.744;7.114;2023-08-12T09:31:28;101107.13;;;23.56;69.82
81387;BME280;70842;50.744;7.114;2023-08-12T09:34:05;101110.94;;;23.13;70.67
81387;BME280;70842;50.744;7.114;2023-08-12T09:36:33;101109.13;;;23.41;70.40
81387;BME280;70842;50.744;7.114;2023-08-12T09:39:00;101111.06;;;23.26;71.08
81387;BME280;70842;50.744;7.114;2023-08-12T09:41:27;101102.38;;;23.31;70.92
81387;BME280;70842;50.744;7.114;2023-08-12T09:43:55;101098.47;;;23.67;70.11
81387;BME280;70842;50.744;7.114;2023-08-12T09:46:22;101095.75;;;24.01;68.95
81387;BME280;70842;50.744;7.114;2023-08-12T09:48:51;101096.66;;;24.09;68.56
81387;BME280;70842;50.744;7.114;2023-08-12T09:51:21;101095.75;;;24.01;68.46
81387;BME280;70842;50.744;7.114;2023-08-12T09:53:49;101095.88;;;23.87;68.74
81387;BME280;70842;50.744;7.114;2023-08-12T09:56:18;101089.06;;;24.32;68.96
81387;BME280;70842;50.744;7.114;2023-08-12T09:58:48;101092.50;;;24.13;68.15
81387;BME280;70842;50.744;7.114;2023-08-12T10:01:18;101088.16;;;24.18;68.60
81387;BME280;70842;50.744;7.114;2023-08-12T10:03:49;101089.50;;;23.60;68.58
81387;BME280;70842;50.744;7.114;2023-08-12T10:06:17;101101.91;;;23.82;68.99
81387;BME280;70842;50.744;7.114;2023-08-12T10:08:47;101092.47;;;23.72;67.11
81387;BME280;70842;50.744;7.114;2023-08-12T10:11:14;101111.22;;;23.46;68.60
81387;BME280;70842;50.744;7.114;2023-08-12T10:13:41;101106.09;;;23.85;67.30
81387;BME280;70842;50.744;7.114;2023-08-12T10:16:09;101094.66;;;23.89;68.17
81387;BME280;70842;50.744;7.114;2023-08-12T10:18:38;101095.44;;;24.11;66.94
81387;BME280;70842;50.744;7.114;2023-08-12T10:21:06;101098.63;;;23.93;67.25
81387;BME280;70842;50.744;7.114;2023-08-12T10:23:35;101093.75;;;23.76;66.73
81387;BME280;70842;50.744;7.114;2023-08-12T10:26:05;101104.59;;;23.48;68.10
81387;BME280;70842;50.744;7.114;2023-08-12T10:28:32;101096.31;;;23.56;68.76
81387;BME280;70842;50.744;7.114;2023-08-12T10:31:04;101074.19;;;23.46;69.02
81387;BME280;70842;50.744;7.114;2023-08-12T10:33:36;101077.50;;;23.76;68.44
81387;BME280;70842;50.744;7.114;2023-08-12T10:36:04;101086.13;;;23.31;69.03
81387;BME280;70842;50.744;7.114;2023-08-12T10:38:32;101098.69;;;23.38;69.69
81387;BME280;70842;50.744;7.114;2023-08-12T10:41:21;101083.78;;;23.49;69.65
81387;BME280;70842;50.744;7.114;2023-08-12T10:49:18;101060.19;;;24.05;68.59
81387;BME280;70842;50.744;7.114;2023-08-12T10:51:46;101074.41;;;23.79;69.06
81387;BME280;70842;50.744;7.114;2023-08-12T10:57:04;101067.41;;;23.57;69.55
81387;BME280;70842;50.744;7.114;2023-08-12T11:02:33;101057.53;;;24.11;68.26
81387;BME280;70842;50.744;7.114;2023-08-12T11:05:07;101054.47;;;23.93;68.29
81387;BME280;70842;50.744;7.114;2023-08-12T11:10:15;101051.19;;;23.97;68.05
81387;BME280;70842;50.744;7.114;2023-08-12T11:12:49;101046.56;;;23.91;67.96
81387;BME280;70842;50.744;7.114;2023-08-12T11:15:36;101036.34;;;23.87;67.99
81387;BME280;70842;50.744;7.114;2023-08-12T11:18:09;101038.44;;;23.91;68.46
81387;BME280;70842;50.744;7.114;2023-08-12T11:20:37;101035.28;;;24.29;67.24
81387;BME280;70842;50.744;7.114;2023-08-12T11:23:04;101035.94;;;23.96;68.64
81387;BME280;70842;50.744;7.114;2023-08-12T11:25:32;101048.78;;;23.75;68.81
81387;BME280;70842;50.744;7.114;2023-08-12T11:27:59;101035.91;;;23.83;68.86
81387;BME280;70842;50.744;7.114;2023-08-12T11:30:27;101029.28;;;23.92;68.76
81387;BME280;70842;50.744;7.114;2023-08-12T11:32:58;101015.97;;;23.97;68.56
81387;BME280;70842;50.744;7.114;2023-08-12T11:35:26;101022.09;;;24.06;68.94
81387;BME280;70842;50.744;7.114;2023-08-12T11:37:55;101023.22;;;23.90;69.22
81387;BME280;70842;50.744;7.114;2023-08-12T11:40:23;101020.84;;;24.09;67.91
81387;BME280;70842;50.744;7.114;2023-08-12T11:42:51;101019.78;;;24.10;67.86
81387;BME280;70842;50.744;7.114;2023-08-12T11:45:25;101014.34;;;24.90;65.83
81387;BME280;70842;50.744;7.114;2023-08-12T11:47:53;101006.78;;;24.59;65.53
81387;BME280;70842;50.744;7.114;2023-08-12T11:50:23;101010.75;;;25.22;64.00
81387;BME280;70842;50.744;7.114;2023-08-12T11:52:50;101009.09;;;25.27;64.00
81387;BME280;70842;50.744;7.114;2023-08-12T11:55:17;101006.41;;;24.88;63.60
81387;BME280;70842;50.744;7.114;2023-08-12T11:57:44;101006.38;;;25.34;63.71
81387;BME280;70842;50.744;7.114;2023-08-12T12:00:12;101007.69;;;24.79;63.66
81387;BME280;70842;50.744;7.114;2023-08-12T12:02:50;101007.88;;;24.91;63.42
81387;BME280;70842;50.744;7.114;2023-08-12T12:05:17;101012.44;;;25.03;62.67
81387;BME280;70842;50.744;7.114;2023-08-12T12:07:50;101005.34;;;24.69;63.51
81387;BME280;70842;50.744;7.114;2023-08-12T12:10:25;101009.69;;;24.51;62.74
81387;BME280;70842;50.744;7.114;2023-08-12T12:12:59;101003.69;;;24.75;61.69
81387;BME280;70842;50.744;7.114;2023-08-12T12:15:26;101006.19;;;25.09;61.62
81387;BME280;70842;50.744;7.114;2023-08-12T12:17:52;101004.47;;;25.34;59.31
81387;BME280;70842;50.744;7.114;2023-08-12T12:20:19;101011.34;;;25.57;59.14
81387;BME280;70842;50.744;7.114;2023-08-12T12:22:48;101007.63;;;25.44;59.00
81387;BME280;70842;50.744;7.114;2023-08-12T12:25:16;101016.16;;;25.35;58.67
81387;BME280;70842;50.744;7.114;2023-08-12T12:27:45;101014.53;;;25.27;58.73
81387;BME280;70842;50.744;7.114;2023-08-12T12:30:13;101018.47;;;25.25;59.54
81387;BME280;70842;50.744;7.114;2023-08-12T12:32:40;101019.94;;;25.21;60.03
81387;BME280;70842;50.744;7.114;2023-08-12T12:35:07;101021.81;;;25.27;59.36
81387;BME280;70842;50.744;7.114;2023-08-12T12:37:34;101023.06;;;25.31;59.96
81387;BME280;70842;50.744;7.114;2023-08-12T12:40:00;101027.25;;;25.20;58.88
81387;BME280;70842;50.744;7.114;2023-08-12T12:42:27;101027.47;;;25.32;58.70
81387;BME280;70842;50.744;7.114;2023-08-12T12:44:53;101021.41;;;25.17;59.24
81387;BME280;70842;50.744;7.114;2023-08-12T12:47:20;101033.50;;;25.40;58.51
81387;BME280;70842;50.744;7.114;2023-08-12T12:49:46;101038.28;;;25.51;58.51
81387;BME280;70842;50.744;7.114;2023-08-12T12:52:12;101040.75;;;25.66;58.28
81387;BME280;70842;50.744;7.114;2023-08-12T12:54:39;101041.81;;;25.32;59.15
81387;BME280;70842;50.744;7.114;2023-08-12T12:57:06;101037.66;;;25.43;58.90
81387;BME280;70842;50.744;7.114;2023-08-12T12:59:32;101046.84;;;25.62;57.54
81387;BME280;70842;50.744;7.114;2023-08-12T13:01:59;101042.03;;;25.57;57.71
81387;BME280;70842;50.744;7.114;2023-08-12T13:04:25;101037.59;;;25.76;57.21
81387;BME280;70842;50.744;7.114;2023-08-12T13:06:51;101033.78;;;25.90;56.63